Time;durP1;ratioP1;P1;durP2;ratioP2;P2;SDS_P1;SDS_P2;PMS_P1;PMS_P2;Temp;Humidity;BMP_temperature;BMP_pressure;BME280_temperature;BME280_humidity;BME280_pressure;Samples;Min_cycle;Max_cycle;Signal;HPM_P1;HPM_P2
2022/06/02 00:01:09;;;;;;;2.83;1.40;;;;;;;;;;5094655;28;20070;-74
2022/06/02 00:03:42;;;;;;;2.33;1.50;;;;;;;;;;5062915;28;20554;-74
2022/06/02 00:06:24;;;;;;;2.77;1.30;;;;;;;;;;5094748;28;20043;-74
2022/06/02 00:09:13;;;;;;;3.33;1.20;;;;;;;;;;5092624;28;20035;-74
2022/06/02 00:11:56;;;;;;;3.13;1.00;;;;;;;;;;5075538;28;20036;-73
2022/06/02 00:14:41;;;;;;;1.37;0.70;;;;;;;;;;5089281;28;20020;-76
2022/06/02 00:17:14;;;;;;;1.50;0.77;;;;;;;;;;5089243;28;20374;-74
2022/06/02 00:19:53;;;;;;;1.60;0.90;;;;;;;;;;5092743;28;20074;-74
2022/06/02 00:22:20;;;;;;;1.17;0.70;;;;;;;;;;5094357;28;20028;-73
2022/06/02 00:24:54;;;;;;;1.43;0.67;;;;;;;;;;5094514;28;20035;-73
2022/06/02 00:27:26;;;;;;;1.23;0.80;;;;;;;;;;5094005;28;20039;-74
2022/06/02 00:30:11;;;;;;;1.37;0.80;;;;;;;;;;5094351;28;20032;-73
2022/06/02 00:32:53;;;;;;;3.28;1.30;;;;;;;;;;5088790;28;20047;-74
2022/06/02 00:35:40;;;;;;;2.80;1.47;;;;;;;;;;5089001;28;20028;-74
2022/06/02 00:38:27;;;;;;;3.13;1.40;;;;;;;;;;5071513;28;20032;-73
2022/06/02 00:40:54;;;;;;;4.80;1.23;;;;;;;;;;5089376;28;20030;-73
2022/06/02 00:43:30;;;;;;;1.70;0.83;;;;;;;;;;5094122;28;20119;-73
2022/06/02 00:46:05;;;;;;;2.80;0.93;;;;;;;;;;5094134;28;20095;-73
2022/06/02 00:48:55;;;;;;;3.10;0.83;;;;;;;;;;5093625;28;20020;-73
2022/06/02 00:51:34;;;;;;;4.57;1.00;;;;;;;;;;5085746;28;20036;-73
2022/06/02 00:57:32;;;;;;;3.60;1.17;;;;;;;;;;5087126;28;20088;-73
2022/06/02 00:59:59;;;;;;;1.90;0.90;;;;;;;;;;5088337;28;20351;-76
2022/06/02 01:02:27;;;;;;;3.77;1.00;;;;;;;;;;5088393;28;20352;-76
2022/06/02 01:05:00;;;;;;;5.33;1.20;;;;;;;;;;5092607;28;20024;-76
2022/06/02 01:07:45;;;;;;;3.27;1.90;;;;;;;;;;5093740;28;20016;-76
2022/06/02 01:10:25;;;;;;;8.68;3.03;;;;;;;;;;5093272;28;20107;-77
2022/06/02 01:13:10;;;;;;;2.63;1.73;;;;;;;;;;5093555;28;20105;-77
2022/06/02 01:15:54;;;;;;;4.40;1.40;;;;;;;;;;5091810;28;20136;-76
2022/06/02 01:18:30;;;;;;;2.70;1.30;;;;;;;;;;5088169;28;20028;-76
2022/06/02 01:21:06;;;;;;;5.83;1.27;;;;;;;;;;5087444;28;20273;-76
2022/06/02 01:24:02;;;;;;;1.97;1.10;;;;;;;;;;5087900;28;20026;-76
2022/06/02 01:26:42;;;;;;;3.17;1.33;;;;;;;;;;5036432;28;20061;-76
2022/06/02 01:29:18;;;;;;;5.60;1.40;;;;;;;;;;5093163;28;20470;-74
2022/06/02 01:31:54;;;;;;;3.47;1.53;;;;;;;;;;5092640;28;20081;-73
2022/06/02 01:34:24;;;;;;;2.47;1.27;;;;;;;;;;5092797;28;20465;-73
2022/06/02 01:36:57;;;;;;;4.67;1.40;;;;;;;;;;5092239;28;20482;-73
2022/06/02 01:39:29;;;;;;;3.33;1.30;;;;;;;;;;5087537;28;20478;-73
2022/06/02 01:42:14;;;;;;;5.97;1.17;;;;;;;;;;5087325;28;20479;-73
2022/06/02 01:44:40;;;;;;;4.65;1.30;;;;;;;;;;5087587;28;20483;-74
2022/06/02 01:47:13;;;;;;;4.80;1.43;;;;;;;;;;5087444;28;20039;-73
2022/06/02 01:49:48;;;;;;;4.30;1.20;;;;;;;;;;5092725;28;20491;-73
2022/06/02 01:52:15;;;;;;;2.67;1.40;;;;;;;;;;5092347;28;20483;-73
2022/06/02 01:55:08;;;;;;;3.47;1.10;;;;;;;;;;5092678;28;20031;-73
2022/06/02 01:57:34;;;;;;;3.10;1.50;;;;;;;;;;5092429;28;20024;-73
2022/06/02 02:00:12;;;;;;;3.00;1.30;;;;;;;;;;5091560;28;20031;-73
2022/06/02 02:02:48;;;;;;;4.40;1.57;;;;;;;;;;5086967;28;20052;-73
2022/06/02 02:05:30;;;;;;;5.27;1.90;;;;;;;;;;5086995;28;20036;-73
2022/06/02 02:08:17;;;;;;;3.33;1.40;;;;;;;;;;5086675;28;20024;-73
2022/06/02 02:10:59;;;;;;;4.30;2.17;;;;;;;;;;5089487;28;20115;-73
2022/06/02 02:13:44;;;;;;;7.30;1.90;;;;;;;;;;5091791;28;20040;-73
2022/06/02 02:16:24;;;;;;;2.63;1.67;;;;;;;;;;5091820;28;20376;-73
2022/06/02 02:18:53;;;;;;;8.07;3.03;;;;;;;;;;5092507;28;20039;-73
2022/06/02 02:21:32;;;;;;;4.10;1.73;;;;;;;;;;5092388;28;20024;-73
2022/06/02 02:24:17;;;;;;;4.00;2.07;;;;;;;;;;5087295;28;20034;-73
2022/06/02 02:26:52;;;;;;;7.45;2.15;;;;;;;;;;5086233;28;20028;-73
2022/06/02 02:29:37;;;;;;;7.90;2.87;;;;;;;;;;5085786;28;20039;-73
2022/06/02 02:32:04;;;;;;;5.47;2.33;;;;;;;;;;5086312;28;20044;-73
2022/06/02 02:34:48;;;;;;;4.43;2.27;;;;;;;;;;5091825;28;20024;-74
2022/06/02 02:37:27;;;;;;;6.15;2.40;;;;;;;;;;5092270;28;20024;-74
2022/06/02 02:40:00;;;;;;;4.70;2.20;;;;;;;;;;5092194;28;20020;-73
2022/06/02 02:42:36;;;;;;;10.17;3.07;;;;;;;;;;5091758;28;20024;-73
2022/06/02 02:45:08;;;;;;;6.47;2.87;;;;;;;;;;5090032;28;20031;-73
2022/06/02 02:47:42;;;;;;;6.10;2.17;;;;;;;;;;5086385;28;20027;-74
2022/06/02 02:50:33;;;;;;;3.60;2.20;;;;;;;;;;5066355;28;20028;-73
2022/06/02 02:53:15;;;;;;;5.73;2.30;;;;;;;;;;5058866;28;20591;-73
2022/06/02 02:56:00;;;;;;;5.00;2.20;;;;;;;;;;5069338;28;20108;-73
2022/06/02 02:58:43;;;;;;;4.88;2.45;;;;;;;;;;5071438;28;20507;-73
2022/06/02 03:01:19;;;;;;;9.03;3.00;;;;;;;;;;5071896;28;20053;-73
2022/06/02 03:03:54;;;;;;;5.80;3.17;;;;;;;;;;5071681;28;20033;-73
2022/06/02 03:06:27;;;;;;;9.57;3.60;;;;;;;;;;5077111;28;20033;-73
2022/06/02 03:09:05;;;;;;;8.93;3.60;;;;;;;;;;5085955;28;20066;-73
2022/06/02 03:11:46;;;;;;;7.10;3.13;;;;;;;;;;5084829;28;20036;-73
2022/06/02 03:14:13;;;;;;;5.20;2.67;;;;;;;;;;5078722;28;20467;-73
2022/06/02 03:16:41;;;;;;;6.40;2.70;;;;;;;;;;5085222;28;20031;-73
2022/06/02 03:19:19;;;;;;;6.73;2.90;;;;;;;;;;5091287;28;20105;-73
2022/06/02 03:21:53;;;;;;;6.33;3.00;;;;;;;;;;5094785;28;20424;-73
2022/06/02 03:24:20;;;;;;;6.32;2.85;;;;;;;;;;5095629;28;20467;-73
2022/06/02 03:26:47;;;;;;;4.37;2.30;;;;;;;;;;5095561;28;20027;-73
2022/06/02 03:29:42;;;;;;;8.33;3.07;;;;;;;;;;5094159;28;20040;-73
2022/06/02 03:32:34;;;;;;;5.97;2.67;;;;;;;;;;5089569;28;20510;-73
2022/06/02 03:35:20;;;;;;;4.87;2.47;;;;;;;;;;5065980;28;20063;-73
2022/06/02 03:37:56;;;;;;;6.50;2.90;;;;;;;;;;5089902;28;20035;-74
2022/06/02 03:40:41;;;;;;;6.23;2.77;;;;;;;;;;5092754;28;20485;-73
2022/06/02 03:43:08;;;;;;;6.20;3.17;;;;;;;;;;5095543;28;20073;-73
2022/06/02 03:45:52;;;;;;;7.77;3.17;;;;;;;;;;5095297;28;20103;-73
2022/06/02 03:48:28;;;;;;;7.13;2.93;;;;;;;;;;5095250;28;20047;-72
2022/06/02 03:51:02;;;;;;;8.10;2.90;;;;;;;;;;5095134;28;20032;-73
2022/06/02 03:53:47;;;;;;;8.73;2.87;;;;;;;;;;5089442;28;20044;-73
2022/06/02 03:56:22;;;;;;;7.20;2.85;;;;;;;;;;5089167;28;20016;-73
2022/06/02 03:59:01;;;;;;;7.73;3.13;;;;;;;;;;5089285;28;20421;-73
2022/06/02 04:01:32;;;;;;;9.10;3.17;;;;;;;;;;5089681;28;20480;-73
2022/06/02 04:04:05;;;;;;;14.27;3.47;;;;;;;;;;5094924;28;20016;-73
2022/06/02 04:06:41;;;;;;;6.30;3.33;;;;;;;;;;5094748;28;20398;-72
2022/06/02 04:09:29;;;;;;;9.20;3.60;;;;;;;;;;5094860;28;20031;-74
2022/06/02 04:15:10;;;;;;;7.20;3.90;;;;;;;;;;5085607;28;20031;-74
2022/06/02 04:18:04;;;;;;;6.53;3.13;;;;;;;;;;5089208;28;20466;-73
2022/06/02 04:20:52;;;;;;;5.70;2.93;;;;;;;;;;5065479;28;20055;-73
2022/06/02 04:23:22;;;;;;;7.07;3.57;;;;;;;;;;5088986;28;20073;-73
2022/06/02 04:26:07;;;;;;;9.17;3.23;;;;;;;;;;5094162;28;20047;-74
2022/06/02 04:28:42;;;;;;;5.72;2.90;;;;;;;;;;5093877;28;20066;-73
2022/06/02 04:31:27;;;;;;;7.87;3.00;;;;;;;;;;5094064;28;20032;-73
2022/06/02 04:34:04;;;;;;;13.45;5.50;;;;;;;;;;5094378;28;20069;-74
2022/06/02 04:36:36;;;;;;;12.43;3.80;;;;;;;;;;5092213;28;20097;-73
2022/06/02 04:39:13;;;;;;;9.97;4.27;;;;;;;;;;5088639;28;20016;-74
2022/06/02 04:42:06;;;;;;;9.10;3.80;;;;;;;;;;5088655;28;20081;-73
2022/06/02 04:44:50;;;;;;;13.40;3.97;;;;;;;;;;5064778;28;20036;-73
2022/06/02 04:47:25;;;;;;;5.55;3.70;;;;;;;;;;5081930;28;20021;-70
2022/06/02 04:50:00;;;;;;;6.20;3.00;;;;;;;;;;5093963;28;20104;-74
2022/06/02 04:52:48;;;;;;;6.50;2.95;;;;;;;;;;5093745;28;20032;-76
2022/06/02 04:55:21;;;;;;;6.67;3.70;;;;;;;;;;5093848;28;20101;-72
2022/06/02 04:58:24;;;;;;;10.37;3.10;;;;;;;;;;5093916;28;20042;-75
2022/06/02 05:01:06;;;;;;;7.90;3.53;;;;;;;;;;5045049;28;20025;-69
2022/06/02 05:03:38;;;;;;;11.10;3.50;;;;;;;;;;5080867;28;20029;-69
2022/06/02 05:06:14;;;;;;;6.70;3.60;;;;;;;;;;5068296;28;20114;-69
2022/06/02 05:08:48;;;;;;;7.87;3.03;;;;;;;;;;5069666;28;20359;-68
2022/06/02 05:11:24;;;;;;;9.37;3.57;;;;;;;;;;5073446;28;20039;-68
2022/06/02 05:13:58;;;;;;;8.87;3.90;;;;;;;;;;5072946;28;20033;-71
2022/06/02 05:16:39;;;;;;;8.40;2.70;;;;;;;;;;5089538;28;20119;-70
2022/06/02 05:19:09;;;;;;;10.47;3.90;;;;;;;;;;5093378;28;20039;-70
2022/06/02 05:21:46;;;;;;;6.90;3.47;;;;;;;;;;5090482;28;20016;-70
2022/06/02 05:24:16;;;;;;;8.77;3.50;;;;;;;;;;5087624;28;20078;-70
2022/06/02 05:26:55;;;;;;;8.07;3.30;;;;;;;;;;5087980;28;20016;-70
2022/06/02 05:29:25;;;;;;;7.30;3.50;;;;;;;;;;5087737;28;20043;-70
2022/06/02 05:32:03;;;;;;;7.93;4.50;;;;;;;;;;5090190;28;20522;-71
2022/06/02 05:34:45;;;;;;;9.33;3.67;;;;;;;;;;5092672;28;20020;-70
2022/06/02 05:37:21;;;;;;;8.27;4.10;;;;;;;;;;5092969;28;20500;-70
2022/06/02 05:40:04;;;;;;;4.57;2.73;;;;;;;;;;5093075;28;20103;-71
2022/06/02 05:42:34;;;;;;;6.60;3.53;;;;;;;;;;5092481;28;20028;-70
2022/06/02 05:45:04;;;;;;;10.60;3.60;;;;;;;;;;5087551;28;20110;-70
2022/06/02 05:47:40;;;;;;;4.77;2.97;;;;;;;;;;5087316;28;20060;-70
2022/06/02 05:50:22;;;;;;;12.33;4.97;;;;;;;;;;5087506;28;20405;-70
2022/06/02 05:53:03;;;;;;;9.17;4.10;;;;;;;;;;5087235;28;20036;-70
2022/06/02 05:55:32;;;;;;;10.53;4.53;;;;;;;;;;5092342;28;20031;-70
2022/06/02 05:58:02;;;;;;;6.80;3.77;;;;;;;;;;5092760;28;20024;-70
2022/06/02 06:00:36;;;;;;;10.83;3.43;;;;;;;;;;5092062;28;20028;-70
2022/06/02 06:03:04;;;;;;;6.47;2.88;;;;;;;;;;5092819;28;20103;-70
2022/06/02 06:05:30;;;;;;;10.13;3.50;;;;;;;;;;5091690;28;20027;-71
2022/06/02 06:07:57;;;;;;;9.53;2.90;;;;;;;;;;5087145;28;20028;-70
2022/06/02 06:10:33;;;;;;;7.23;3.57;;;;;;;;;;5087032;28;20062;-70
2022/06/02 06:13:02;;;;;;;5.17;2.60;;;;;;;;;;5086962;28;20066;-70
2022/06/02 06:15:37;;;;;;;7.60;3.13;;;;;;;;;;5087250;28;20051;-70
2022/06/02 06:18:04;;;;;;;10.88;4.10;;;;;;;;;;5092232;28;20056;-70
2022/06/02 06:20:31;;;;;;;7.57;3.70;;;;;;;;;;5092576;28;20028;-70
2022/06/02 06:23:16;;;;;;;9.67;4.30;;;;;;;;;;5092302;28;20024;-70
2022/06/02 06:25:50;;;;;;;8.48;3.35;;;;;;;;;;5071748;28;20020;-70
2022/06/02 06:28:17;;;;;;;6.53;3.42;;;;;;;;;;5069834;28;20066;-70
2022/06/02 06:31:02;;;;;;;5.93;3.37;;;;;;;;;;5049024;28;20349;-70
2022/06/02 06:33:29;;;;;;;;;;;;;;;;;;5067052;28;20460;-70
2022/06/02 06:36:01;;;;;;;5.97;3.00;;;;;;;;;;5066320;28;19904;-71
2022/06/02 06:38:40;;;;;;;6.63;3.20;;;;;;;;;;5068657;28;20078;-70
2022/06/02 06:41:10;;;;;;;5.87;2.80;;;;;;;;;;5091765;28;20038;-71
2022/06/02 06:43:40;;;;;;;4.43;2.43;;;;;;;;;;5092326;28;20425;-71
2022/06/02 06:46:10;;;;;;;5.23;2.70;;;;;;;;;;5091817;28;20356;-70
2022/06/02 06:48:38;;;;;;;7.60;2.73;;;;;;;;;;5092268;28;20124;-70
2022/06/02 06:51:23;;;;;;;4.70;2.43;;;;;;;;;;5089140;28;20031;-71
2022/06/02 06:54:02;;;;;;;5.85;3.13;;;;;;;;;;5086753;28;20081;-70
2022/06/02 06:56:35;;;;;;;6.67;3.07;;;;;;;;;;5090153;28;20052;-70
2022/06/02 06:59:01;;;;;;;5.37;2.87;;;;;;;;;;5090653;28;20555;-70
2022/06/02 07:01:46;;;;;;;7.43;2.70;;;;;;;;;;5094494;28;20374;-69
2022/06/02 07:04:22;;;;;;;7.18;2.72;;;;;;;;;;5095869;28;20078;-70
2022/06/02 07:07:08;;;;;;;4.97;2.83;;;;;;;;;;5096154;28;20043;-70
2022/06/02 07:09:41;;;;;;;4.90;2.60;;;;;;;;;;5096115;28;20091;-70
2022/06/02 07:15:16;;;;;;;5.20;2.80;;;;;;;;;;5090877;28;20129;-70
2022/06/02 07:17:56;;;;;;;6.90;2.80;;;;;;;;;;5090582;28;20020;-70
2022/06/02 07:20:43;;;;;;;8.77;3.70;;;;;;;;;;5089934;28;20024;-71
2022/06/02 07:23:19;;;;;;;6.93;3.07;;;;;;;;;;5076142;28;20032;-70
2022/06/02 07:26:04;;;;;;;5.93;3.10;;;;;;;;;;5095847;28;20020;-70
2022/06/02 07:28:34;;;;;;;4.47;2.58;;;;;;;;;;5075212;28;20036;-70
2022/06/02 07:31:12;;;;;;;5.33;2.80;;;;;;;;;;5075479;28;20078;-70
2022/06/02 07:33:48;;;;;;;10.23;3.00;;;;;;;;;;5075254;28;20091;-70
2022/06/02 07:36:15;;;;;;;34.07;9.67;;;;;;;;;;5070031;28;20025;-71
2022/06/02 07:39:00;;;;;;;9.57;4.60;;;;;;;;;;5069647;28;20028;-70
2022/06/02 07:41:28;;;;;;;6.40;3.03;;;;;;;;;;5069689;28;20487;-70
2022/06/02 07:44:04;;;;;;;2.93;2.00;;;;;;;;;;5089638;28;20032;-70
2022/06/02 07:46:53;;;;;;;4.00;2.37;;;;;;;;;;5094345;28;20479;-70
2022/06/02 07:49:30;;;;;;;4.53;2.20;;;;;;;;;;5095342;28;20572;-70
2022/06/02 07:51:56;;;;;;;7.57;1.93;;;;;;;;;;5095049;28;20378;-71
2022/06/02 07:54:23;;;;;;;6.00;2.83;;;;;;;;;;5094590;28;20028;-71
2022/06/02 07:57:12;;;;;;;6.00;2.70;;;;;;;;;;5094418;28;20024;-71
2022/06/02 07:59:47;;;;;;;6.67;2.97;;;;;;;;;;5089500;28;20028;-71
2022/06/02 08:02:32;;;;;;;3.80;2.60;;;;;;;;;;5089460;28;20115;-70
2022/06/02 08:05:25;;;;;;;4.43;2.00;;;;;;;;;;5089745;28;20028;-71
2022/06/02 08:08:00;;;;;;;5.60;2.20;;;;;;;;;;5089069;28;20056;-70
2022/06/02 08:10:41;;;;;;;5.23;2.17;;;;;;;;;;5094468;28;20020;-71
2022/06/02 08:13:28;;;;;;;4.40;2.33;;;;;;;;;;5094714;28;20103;-70
2022/06/02 08:15:54;;;;;;;2.83;1.83;;;;;;;;;;5094387;28;20024;-71
2022/06/02 08:18:37;;;;;;;7.00;2.00;;;;;;;;;;5094221;28;20028;-71
2022/06/02 08:21:15;;;;;;;3.27;1.60;;;;;;;;;;5089366;28;20552;-70
2022/06/02 08:23:45;;;;;;;3.50;2.10;;;;;;;;;;5089364;28;20031;-70
2022/06/02 08:26:16;;;;;;;3.90;2.20;;;;;;;;;;5088275;28;20103;-70
2022/06/02 08:29:06;;;;;;;4.50;2.50;;;;;;;;;;5088637;28;20467;-70
2022/06/02 08:31:50;;;;;;;35.93;9.50;;;;;;;;;;5081342;28;20040;-70
2022/06/02 08:34:25;;;;;;;7.77;3.50;;;;;;;;;;5093831;28;20379;-70
2022/06/02 08:36:58;;;;;;;5.50;2.83;;;;;;;;;;5094388;28;20032;-70
2022/06/02 08:39:51;;;;;;;5.00;2.83;;;;;;;;;;5094356;28;20028;-70
2022/06/02 08:42:33;;;;;;;6.53;3.70;;;;;;;;;;5091068;28;20030;-70
2022/06/02 08:45:02;;;;;;;6.00;2.50;;;;;;;;;;5087954;28;20124;-70
2022/06/02 08:47:47;;;;;;;4.67;2.73;;;;;;;;;;5088529;28;20024;-70
2022/06/02 08:50:30;;;;;;;6.13;2.13;;;;;;;;;;5088227;28;20025;-70
2022/06/02 08:53:07;;;;;;;7.93;2.00;;;;;;;;;;5092464;28;20055;-70
2022/06/02 08:55:44;;;;;;;4.87;1.97;;;;;;;;;;5093654;28;20046;-70
2022/06/02 08:58:11;;;;;;;5.40;1.63;;;;;;;;;;5093564;28;20471;-70
2022/06/02 09:00:37;;;;;;;3.07;1.73;;;;;;;;;;5093477;28;20091;-70
2022/06/02 09:03:22;;;;;;;4.37;1.70;;;;;;;;;;5093172;28;20492;-70
2022/06/02 09:05:49;;;;;;;3.22;1.95;;;;;;;;;;5088264;28;20126;-71
2022/06/02 09:08:35;;;;;;;4.17;2.30;;;;;;;;;;5088348;28;20110;-70
2022/06/02 09:11:20;;;;;;;6.10;2.17;;;;;;;;;;5088252;28;20074;-71
2022/06/02 09:13:47;;;;;;;14.38;5.70;;;;;;;;;;5088239;28;20469;-71
2022/06/02 09:16:27;;;;;;;16.87;6.00;;;;;;;;;;5093308;28;20078;-70
2022/06/02 09:19:10;;;;;;;7.93;3.17;;;;;;;;;;5092375;28;20162;-70
2022/06/02 09:21:55;;;;;;;4.73;2.27;;;;;;;;;;5093234;28;20016;-70
2022/06/02 09:24:27;;;;;;;3.05;2.30;;;;;;;;;;5093175;28;20022;-70
2022/06/02 09:27:00;;;;;;;3.03;2.03;;;;;;;;;;5090323;28;20027;-70
2022/06/02 09:29:36;;;;;;;6.47;1.60;;;;;;;;;;5087739;28;20042;-71
2022/06/02 09:32:07;;;;;;;3.67;1.70;;;;;;;;;;5087390;28;20372;-70
2022/06/02 09:34:42;;;;;;;4.00;2.40;;;;;;;;;;5087437;28;20061;-70
2022/06/02 09:37:15;;;;;;;4.32;1.90;;;;;;;;;;5090801;28;20020;-70
2022/06/02 09:39:41;;;;;;;3.80;2.00;;;;;;;;;;5093097;28;20024;-71
2022/06/02 09:42:11;;;;;;;2.83;1.53;;;;;;;;;;5092860;28;20016;-70
2022/06/02 09:44:58;;;;;;;5.60;1.97;;;;;;;;;;5092960;28;20058;-71
2022/06/02 09:47:27;;;;;;;7.17;1.40;;;;;;;;;;5075354;28;20405;-71
2022/06/02 09:50:04;;;;;;;3.30;1.73;;;;;;;;;;5087734;28;20078;-70
2022/06/02 09:52:33;;;;;;;2.87;1.40;;;;;;;;;;5087485;28;20039;-70
2022/06/02 09:55:08;;;;;;;2.70;1.60;;;;;;;;;;5086994;28;20462;-70
2022/06/02 09:57:55;;;;;;;8.32;2.22;;;;;;;;;;5087297;28;20105;-70
2022/06/02 10:00:25;;;;;;;4.00;1.80;;;;;;;;;;5092462;28;20024;-70
2022/06/02 10:03:05;;;;;;;4.47;2.40;;;;;;;;;;5092409;28;20488;-70
2022/06/02 10:05:35;;;;;;;6.37;2.70;;;;;;;;;;5092741;28;20077;-70
2022/06/02 10:08:07;;;;;;;2.83;1.63;;;;;;;;;;5092730;28;20415;-70
2022/06/02 10:10:46;;;;;;;3.10;1.43;;;;;;;;;;5090891;28;20026;-70
2022/06/02 10:13:26;;;;;;;2.87;1.53;;;;;;;;;;5086749;28;20383;-70
2022/06/02 10:16:05;;;;;;;2.43;1.60;;;;;;;;;;5086916;28;20039;-70
2022/06/02 10:18:37;;;;;;;4.80;1.50;;;;;;;;;;5087131;28;20508;-70
2022/06/02 10:21:08;;;;;;;4.87;1.90;;;;;;;;;;5088445;28;20023;-70
2022/06/02 10:23:49;;;;;;;9.40;3.60;;;;;;;;;;5092465;28;20111;-70
2022/06/02 10:26:16;;;;;;;4.00;1.73;;;;;;;;;;5092325;28;20032;-70
2022/06/02 10:28:46;;;;;;;2.37;1.30;;;;;;;;;;5091966;28;20027;-70
2022/06/02 10:31:16;;;;;;;3.47;1.40;;;;;;;;;;5091856;28;20104;-70
2022/06/02 10:33:49;;;;;;;5.77;2.17;;;;;;;;;;5088794;28;20046;-70
2022/06/02 10:36:21;;;;;;;15.10;4.07;;;;;;;;;;5086809;28;20047;-70
2022/06/02 10:38:54;;;;;;;40.53;10.67;;;;;;;;;;5086842;28;20036;-70
2022/06/02 10:41:39;;;;;;;38.40;9.47;;;;;;;;;;5086490;28;20035;-70
2022/06/02 10:44:16;;;;;;;25.75;6.70;;;;;;;;;;5090563;28;20413;-70
2022/06/02 10:46:48;;;;;;;24.77;5.63;;;;;;;;;;5092314;28;20077;-70
2022/06/02 10:49:26;;;;;;;5.93;3.33;;;;;;;;;;5092255;28;20043;-70
2022/06/02 10:52:11;;;;;;;3.90;1.93;;;;;;;;;;5091510;28;20034;-70
2022/06/02 10:54:46;;;;;;;7.25;2.75;;;;;;;;;;5091585;28;20024;-70
2022/06/02 10:57:12;;;;;;;6.38;2.03;;;;;;;;;;5086710;28;20031;-70
2022/06/02 10:59:39;;;;;;;4.60;2.07;;;;;;;;;;5086630;28;20406;-70
2022/06/02 11:02:05;;;;;;;6.67;2.23;;;;;;;;;;5086346;28;20036;-70
2022/06/02 11:04:50;;;;;;;4.57;1.60;;;;;;;;;;5086199;28;20052;-71
2022/06/02 11:07:35;;;;;;;3.88;1.88;;;;;;;;;;5092157;28;20016;-70
2022/06/02 11:10:13;;;;;;;10.13;2.15;;;;;;;;;;5091671;28;20025;-70
2022/06/02 11:12:42;;;;;;;3.70;2.00;;;;;;;;;;5091948;28;20414;-70
2022/06/02 11:15:27;;;;;;;3.83;1.70;;;;;;;;;;5091613;28;20054;-70
2022/06/02 11:18:12;;;;;;;2.70;1.77;;;;;;;;;;5088739;28;20436;-70
2022/06/02 11:20:39;;;;;;;5.50;1.75;;;;;;;;;;5086393;28;20055;-70
2022/06/02 11:23:24;;;;;;;3.90;1.83;;;;;;;;;;5086465;28;20053;-70
2022/06/02 11:25:57;;;;;;;6.88;2.90;;;;;;;;;;5085585;28;20024;-70
2022/06/02 11:28:29;;;;;;;6.37;2.57;;;;;;;;;;5089765;28;20031;-70
2022/06/02 11:31:35;;;;;;;4.63;2.07;;;;;;;;;;5091855;28;20081;-70
2022/06/02 11:34:19;;;;;;;5.03;2.23;;;;;;;;;;4989807;28;20034;-70
2022/06/02 11:37:04;;;;;;;4.78;2.33;;;;;;;;;;4990251;28;20523;-70
2022/06/02 11:39:33;;;;;;;5.05;2.50;;;;;;;;;;5062275;28;20024;-70
2022/06/02 11:42:03;;;;;;;2.57;1.53;;;;;;;;;;5087759;28;20107;-70
2022/06/02 11:44:37;;;;;;;4.43;1.83;;;;;;;;;;5089591;28;20378;-70
2022/06/02 11:47:10;;;;;;;5.17;2.07;;;;;;;;;;5089953;28;20058;-70
2022/06/02 11:49:55;;;;;;;9.67;4.30;;;;;;;;;;5090924;28;20073;-70
2022/06/02 11:52:33;;;;;;;43.38;16.65;;;;;;;;;;5094896;28;20552;-70
2022/06/02 11:55:08;;;;;;;33.83;14.47;;;;;;;;;;5094858;28;20048;-70
2022/06/02 11:57:44;;;;;;;10.57;4.57;;;;;;;;;;5095027;28;20020;-70
2022/06/02 12:00:10;;;;;;;8.40;2.63;;;;;;;;;;5095192;28;20547;-70
2022/06/02 12:02:49;;;;;;;3.67;1.93;;;;;;;;;;5091793;28;20435;-70
2022/06/02 12:05:34;;;;;;;10.07;1.80;;;;;;;;;;5089290;28;20024;-70
2022/06/02 12:08:19;;;;;;;5.95;1.70;;;;;;;;;;5089186;28;20609;-70
2022/06/02 12:10:58;;;;;;;7.40;1.60;;;;;;;;;;5089360;28;20035;-73
2022/06/02 12:14:03;;;;;;;3.27;1.70;;;;;;;;;;5094087;28;20498;-72
2022/06/02 12:16:39;;;;;;;5.53;1.60;;;;;;;;;;4973688;28;20042;-72
2022/06/02 12:19:16;;;;;;;3.70;1.57;;;;;;;;;;4973606;28;20281;-73
2022/06/02 12:21:52;;;;;;;3.00;1.70;;;;;;;;;;5036114;28;20577;-70
2022/06/02 12:24:39;;;;;;;5.03;2.00;;;;;;;;;;5075742;28;20032;-70
2022/06/02 12:27:09;;;;;;;6.07;1.87;;;;;;;;;;5067367;28;20127;-70
2022/06/02 12:29:36;;;;;;;3.40;1.97;;;;;;;;;;5088641;28;20027;-70
2022/06/02 12:32:02;;;;;;;3.10;1.70;;;;;;;;;;5088722;28;20040;-70
2022/06/02 12:34:52;;;;;;;6.17;1.87;;;;;;;;;;5090968;28;20042;-70
2022/06/02 12:37:21;;;;;;;5.10;2.50;;;;;;;;;;5065853;28;20040;-70
2022/06/02 12:39:48;;;;;;;7.83;2.17;;;;;;;;;;5093890;28;20471;-71
2022/06/02 12:42:17;;;;;;;5.33;2.20;;;;;;;;;;5094109;28;20035;-70
2022/06/02 12:44:57;;;;;;;3.23;1.70;;;;;;;;;;5093810;28;20028;-70
2022/06/02 12:47:27;;;;;;;3.50;2.00;;;;;;;;;;5090122;28;20034;-70
2022/06/02 12:49:54;;;;;;;4.70;2.03;;;;;;;;;;5088660;28;20024;-70
2022/06/02 12:52:20;;;;;;;6.03;2.87;;;;;;;;;;5088117;28;20521;-70
2022/06/02 12:55:05;;;;;;;5.17;2.30;;;;;;;;;;5088216;28;20032;-70
2022/06/02 12:57:50;;;;;;;4.35;2.53;;;;;;;;;;5092717;28;20386;-70
2022/06/02 13:00:23;;;;;;;6.38;2.97;;;;;;;;;;5093145;28;20028;-70
2022/06/02 13:03:22;;;;;;;5.27;2.67;;;;;;;;;;5093890;28;20016;-70
2022/06/02 13:06:06;;;;;;;4.70;2.37;;;;;;;;;;5038598;28;20040;-70
2022/06/02 13:08:42;;;;;;;3.33;1.60;;;;;;;;;;5091836;28;20767;-70
2022/06/02 13:11:27;;;;;;;5.83;2.37;;;;;;;;;;5088150;28;20356;-70
2022/06/02 13:14:13;;;;;;;4.05;2.20;;;;;;;;;;5087915;28;20479;-71
2022/06/02 13:16:40;;;;;;;4.30;2.40;;;;;;;;;;5088149;28;20444;-71
2022/06/02 13:19:25;;;;;;;4.80;2.30;;;;;;;;;;5090233;28;20035;-71
2022/06/02 13:22:02;;;;;;;4.57;2.17;;;;;;;;;;5092926;28;20746;-70
2022/06/02 13:24:46;;;;;;;4.97;2.27;;;;;;;;;;5093430;28;20027;-70
2022/06/02 13:27:31;;;;;;;9.05;3.67;;;;;;;;;;5093515;28;20024;-70
2022/06/02 13:30:05;;;;;;;6.07;3.00;;;;;;;;;;5093136;28;20024;-71
2022/06/02 13:32:31;;;;;;;5.67;2.23;;;;;;;;;;5087687;28;20717;-71
2022/06/02 13:35:03;;;;;;;3.77;1.90;;;;;;;;;;5087727;28;20039;-71
2022/06/02 13:37:30;;;;;;;3.63;1.80;;;;;;;;;;5087905;28;20024;-73
2022/06/02 13:40:15;;;;;;;5.80;2.70;;;;;;;;;;5086544;28;20162;-74
2022/06/02 13:42:48;;;;;;;8.48;3.63;;;;;;;;;;5092504;28;20402;-74
2022/06/02 13:45:14;;;;;;;9.77;4.43;;;;;;;;;;5092779;28;20020;-74
2022/06/02 13:47:43;;;;;;;9.50;4.43;;;;;;;;;;5092734;28;20016;-71
2022/06/02 13:50:28;;;;;;;13.17;5.57;;;;;;;;;;5092102;28;20031;-71
2022/06/02 13:53:10;;;;;;;20.58;8.75;;;;;;;;;;5091332;28;20479;-71
2022/06/02 13:58:46;;;;;;;7.27;3.57;;;;;;;;;;5086804;28;20038;-71
2022/06/02 14:01:16;;;;;;;4.50;2.47;;;;;;;;;;5087214;28;20028;-71
2022/06/02 14:03:48;;;;;;;5.83;2.00;;;;;;;;;;5089002;28;20383;-72
2022/06/02 14:06:18;;;;;;;5.33;1.80;;;;;;;;;;5092468;28;20032;-72
2022/06/02 14:08:48;;;;;;;5.20;2.20;;;;;;;;;;5092212;28;20027;-72
2022/06/02 14:11:21;;;;;;;5.00;2.57;;;;;;;;;;5092694;28;20530;-72
2022/06/02 14:14:06;;;;;;;7.23;2.40;;;;;;;;;;5092553;28;20427;-72
2022/06/02 14:16:41;;;;;;;3.10;1.83;;;;;;;;;;5087624;28;20051;-71
2022/06/02 14:19:26;;;;;;;4.90;2.20;;;;;;;;;;5086666;28;20379;-72
2022/06/02 14:22:06;;;;;;;4.30;1.80;;;;;;;;;;5086979;28;20026;-71
2022/06/02 14:24:41;;;;;;;3.23;1.87;;;;;;;;;;5086625;28;20042;-71
2022/06/02 14:27:19;;;;;;;6.53;1.80;;;;;;;;;;5091856;28;20016;-72
2022/06/02 14:29:55;;;;;;;4.87;1.70;;;;;;;;;;5092302;28;20032;-71
2022/06/02 14:32:41;;;;;;;3.57;1.73;;;;;;;;;;5092339;28;20039;-71
2022/06/02 14:35:16;;;;;;;4.15;2.05;;;;;;;;;;5092463;28;20024;-71
2022/06/02 14:37:46;;;;;;;3.77;1.53;;;;;;;;;;5089547;28;20805;-71
2022/06/02 14:40:14;;;;;;;2.30;1.47;;;;;;;;;;5086322;28;20503;-72
2022/06/02 14:43:04;;;;;;;4.57;1.80;;;;;;;;;;5086419;28;20075;-71
2022/06/02 14:45:35;;;;;;;2.57;1.47;;;;;;;;;;5086687;28;20020;-71
2022/06/02 14:48:06;;;;;;;3.03;1.60;;;;;;;;;;5088838;28;20528;-72
2022/06/02 14:50:33;;;;;;;4.40;2.03;;;;;;;;;;5091847;28;20043;-72
2022/06/02 14:53:24;;;;;;;5.17;1.87;;;;;;;;;;5092184;28;20032;-71
2022/06/02 14:56:06;;;;;;;3.93;1.97;;;;;;;;;;5092157;28;20435;-71
2022/06/02 14:58:40;;;;;;;3.43;2.00;;;;;;;;;;5091715;28;20107;-74
2022/06/02 15:01:13;;;;;;;3.33;1.77;;;;;;;;;;5086888;28;20374;-74
2022/06/02 15:03:40;;;;;;;4.27;1.90;;;;;;;;;;5086648;28;20028;-72
2022/06/02 15:06:21;;;;;;;3.07;1.70;;;;;;;;;;5086500;28;20077;-71
2022/06/02 15:09:03;;;;;;;2.70;1.70;;;;;;;;;;5085820;28;20028;-74
2022/06/02 15:11:33;;;;;;;5.67;2.60;;;;;;;;;;5092166;28;20054;-74
2022/06/02 15:14:08;;;;;;;4.77;2.17;;;;;;;;;;5091806;28;20030;-74
2022/06/02 15:16:52;;;;;;;2.88;1.92;;;;;;;;;;5092119;28;20028;-74
2022/06/02 15:19:28;;;;;;;4.20;2.42;;;;;;;;;;5095979;28;20348;-73
2022/06/02 15:22:05;;;;;;;4.17;2.43;;;;;;;;;;5093832;28;20016;-74
2022/06/02 15:24:37;;;;;;;3.63;1.90;;;;;;;;;;5089762;28;20052;-74
2022/06/02 15:27:16;;;;;;;3.90;2.07;;;;;;;;;;5089733;28;20494;-73
2022/06/02 15:30:06;;;;;;;4.57;2.23;;;;;;;;;;5090139;28;20032;-73
2022/06/02 15:32:35;;;;;;;3.77;2.10;;;;;;;;;;5084874;28;20048;-74
2022/06/02 15:35:17;;;;;;;6.80;2.40;;;;;;;;;;5095417;28;20097;-72
2022/06/02 15:38:02;;;;;;;2.93;2.20;;;;;;;;;;5095087;28;20024;-72
2022/06/02 15:40:34;;;;;;;3.35;1.63;;;;;;;;;;5095020;28;20074;-72
2022/06/02 15:43:15;;;;;;;5.97;1.47;;;;;;;;;;5095402;28;20036;-72
2022/06/02 15:45:48;;;;;;;3.50;1.50;;;;;;;;;;5089764;28;20474;-72
2022/06/02 15:48:41;;;;;;;5.33;1.43;;;;;;;;;;5089339;28;20024;-72
2022/06/02 15:51:26;;;;;;;3.83;1.60;;;;;;;;;;5089553;28;20064;-73
2022/06/02 15:53:52;;;;;;;;;;;;;;;;;;5091006;28;20032;-73